Arlington, Maryland
Current Conditions -  °F | °C
As of 5:54 AM on Friday 28 Nov 2014 (Local Time) from KBWI Reporting Station
Clear Clear  
Wind Chill: 22°   Ceiling: Unl
Heat Index: 31°   Visibility: 10mi
Dew Point: 22°   Wind: 10mph
Humidity: 69%   Direction: 280°W
Pressure: 30.21"   Gusts: NA
Location:  39.3453°N, 76.6832°W
Report Text: KBWI 281054Z 28009KT 10SM CLR M01/M06 A3021 RMK AO2 SLP232 T10061056
Loading
Personal Weather Stations






























Interactive Weather Map New forecast layout! Learn more

10-Day Weather Forecast

Advertisements
Track Severe Weather on mobile